< < Back
Terminal Aerodrome Forecast


Current Version              Previous Versions:   1  2  3  4  5  6  7  8  9  

Terminal Aerodrome Forecast

704
FTUS44 KHUN 230525
TAFHSV
TAF
KHSV 230525Z 2306/2406 04005KT P6SM SKC
      TEMPO 2310/2313 5SM BR
     FM231500 08006KT P6SM SCT250
     FM240200 VRB03KT P6SM SCT150 BKN250=

Latest METAR

455
SAUS80 KWBC 232100 RRC
MTRHSV
METAR KHSV 232053Z VRB03KT 10SM BKN250 21/03 A3008 RMK AO2 SLP181
T02110028 56019


USA.gov is the U.S. government's official web portal to all federal, state and local government web resources and services.